Windermere, Florida
Current Conditions -  °F | °C
As of 12:53 PM on Monday 22 Dec 2014 (Local Time) from KORL Reporting Station
Few Clouds Few Clouds  
Wind Chill: 76°   Ceiling: Unl
Heat Index: 76°   Visibility: 10mi
Dew Point: 67°   Wind: 6mph
Humidity: 74%   Direction: 180°S
Pressure: 29.96"   Gusts: NA
Location:  28.5°N, 81.53°W
Report Text: KORL 221753Z 18005KT 10SM FEW031 24/19 A2996 RMK AO2 SLP149 60000 T02440194 58024
Loading
Personal Weather Stations






























Interactive Weather Map New forecast layout! Learn more

10-Day Weather Forecast

Advertisements
Track Severe Weather on mobile